Eagle Kinarut — 9V8908 — position and weather

sailwx.info

Track history (hours):
 
Tides and Currents Weather Stations Pressure Air Temp Water Temp Dewpoint Dewpoint Depression Visibility Wind Speed Wind Dir Waves Ship Positions

Eagle Kinarut

Last reported at 2017-Dec-24 09:49 UTC. Time now 2018-Jan-24 12:04 UTC.
Position N 27°53' W 092°12'.
Warning: this ship's position is 31 days out of date.

Length 243 m; draft 11.6 m.

Type: Tanker. MMSI: 564939000.

Date/timePositionNaut miles runAvg speedWind from/ knotsBaromVisibWave heightAir tempDewpointWater temp
2017-Dec-24 09:49N 27°53' W 092°12'911.9
2017-Dec-24 09:04N 27°53' W 092°02'111.7
2017-Dec-24 08:59N 27°53' W 092°00'611.7
2017-Dec-24 08:29N 27°54' W 091°54'711.7
2017-Dec-24 07:55N 27°55' W 091°47'69 2.2
2017-Dec-23 01:20N 28°21' W 090°35'3 9.7
2017-Dec-23 01:00N 28°24' W 090°36'5 5.8
2017-Dec-23 00:06N 28°29' W 090°36'0 0.0
2017-Dec-22 23:43N 28°29' W 090°36'0 0.0
2017-Dec-22 23:22N 28°29' W 090°36'197 4.3
2017-Dec-21 01:05N 28°42' W 094°20'1 0.7
2017-Dec-21 00:15N 28°42' W 094°20'  
2017-Dec-16 14:05N 29°59' W 093°54'0 0.0
2017-Dec-16 13:56N 29°59' W 093°54'0 0.0
2017-Dec-16 13:29N 29°59' W 093°54'5 0.1
2017-Dec-14 14:33N 30°01' W 093°60'0 1.1
2017-Dec-14 14:24N 30°01' W 093°60'  
Track history (hours):
 
Tides and Currents Weather Stations Pressure Air Temp Water Temp Dewpoint Dewpoint Depression Visibility Wind Speed Wind Dir Waves Ship Positions

Eagle Kinarut

Last reported at 2017-Dec-24 09:49 UTC. Time now 2018-Jan-24 12:04 UTC.
Position N 27°53' W 092°12'.
Warning: this ship's position is 31 days out of date.

Length 243 m; draft 11.6 m.

Type: Tanker. MMSI: 564939000.

Date/timePositionNaut miles runAvg speedWind from/ knotsBaromVisibWave heightAir tempDewpointWater temp
2017-Dec-24 09:49N 27°53' W 092°12'911.9
2017-Dec-24 09:04N 27°53' W 092°02'111.7
2017-Dec-24 08:59N 27°53' W 092°00'611.7
2017-Dec-24 08:29N 27°54' W 091°54'711.7
2017-Dec-24 07:55N 27°55' W 091°47'69 2.2
2017-Dec-23 01:20N 28°21' W 090°35'3 9.7
2017-Dec-23 01:00N 28°24' W 090°36'5 5.8
2017-Dec-23 00:06N 28°29' W 090°36'0 0.0
2017-Dec-22 23:43N 28°29' W 090°36'0 0.0
2017-Dec-22 23:22N 28°29' W 090°36'197 4.3
2017-Dec-21 01:05N 28°42' W 094°20'1 0.7
2017-Dec-21 00:15N 28°42' W 094°20'  
2017-Dec-16 14:05N 29°59' W 093°54'0 0.0
2017-Dec-16 13:56N 29°59' W 093°54'0 0.0
2017-Dec-16 13:29N 29°59' W 093°54'5 0.1
2017-Dec-14 14:33N 30°01' W 093°60'0 1.1
2017-Dec-14 14:24N 30°01' W 093°60'  

Dump ship's entire track history